.
WxDataArchive / Data Records for 2006-10-13
2006-10-12 October 2006 2006-10-14

Data Records for Friday, 13 October 2006

Time	Temp	Chill	HIndex	Humid	Dewpt	 Wind 	HiWind	WindDir	Rain 	Barom 
-----	----	-----	------	-----	-----	------	------	-------	-----	----- 
00:00	37.2	37.2	37.2	56	23.0	0	1	248	0.00	29.721 
00:05	37.0	37.0	37.0	56	22.8	1	3	248	0.00	29.721 
00:10	36.9	36.9	36.9	56	22.7	0	3	248	0.00	29.721 
00:15	36.8	36.8	36.8	57	23.0	1	4	248	0.00	29.720 
00:20	36.8	36.8	36.8	57	23.0	1	3	248	0.00	29.720 
00:25	36.9	36.9	36.9	56	22.7	2	5	248	0.00	29.720 
00:30	36.9	36.9	36.9	57	23.1	1	2	248	0.00	29.720 
00:35	36.8	36.8	36.8	57	23.0	1	3	248	0.00	29.720 
00:40	36.8	36.8	36.8	57	23.0	1	3	248	0.00	29.720 
00:45	36.6	36.6	36.6	56	22.4	1	3	248	0.00	29.718 
00:50	36.8	36.8	36.8	56	22.6	1	4	248	0.00	29.718 
00:55	36.8	36.8	36.8	55	22.2	1	4	248	0.00	29.718 
01:00	36.8	36.8	36.8	56	22.6	1	3	248	0.00	29.717 
01:05	36.8	36.8	36.8	55	22.2	1	4	248	0.00	29.717 
01:10	36.8	36.8	36.8	55	22.2	2	4	248	0.00	29.717 
01:15	36.8	36.8	36.8	56	22.6	1	5	248	0.00	29.716 
01:20	36.8	36.8	36.8	56	22.6	2	6	248	0.00	29.716 
01:25	36.6	36.6	36.6	56	22.4	1	3	248	0.00	29.716 
01:30	36.6	36.6	36.6	56	22.4	2	4	248	0.00	29.712 
01:35	36.6	36.6	36.6	56	22.4	1	3	248	0.00	29.712 
01:40	36.5	36.5	36.5	56	22.3	2	5	248	0.00	29.712 
01:45	36.5	36.5	36.5	57	22.7	1	5	248	0.00	29.713 
01:50	36.5	36.5	36.5	57	22.7	1	5	248	0.00	29.713 
01:55	36.5	36.5	36.5	57	22.7	1	3	248	0.00	29.713 
02:00	36.3	36.3	36.3	57	22.5	2	5	248	0.00	29.713 
02:05	36.3	36.3	36.3	57	22.5	2	6	248	0.00	29.713 
02:10	36.2	36.2	36.2	58	22.9	1	4	248	0.00	29.713 
02:15	36.2	36.2	36.2	58	22.9	1	3	248	0.00	29.717 
02:20	36.0	36.0	36.0	59	23.1	1	4	248	0.00	29.717 
02:25	35.9	35.9	35.9	59	23.0	1	5	248	0.00	29.717 
02:30	35.9	35.9	35.9	58	22.6	2	5	248	0.00	29.713 
02:35	36.0	36.0	36.0	59	23.1	2	5	248	0.00	29.713 
02:40	36.2	36.2	36.2	58	22.9	2	6	248	0.00	29.713 
02:45	36.2	36.2	36.2	58	22.9	2	6	248	0.00	29.718 
02:50	35.9	35.9	35.9	59	23.0	1	7	270	0.00	29.718 
02:55	35.8	35.8	35.8	60	23.3	1	4	248	0.00	29.718 
03:00	35.6	35.6	35.6	60	23.1	1	4	248	0.00	29.718 
03:05	35.6	35.6	35.6	60	23.1	2	7	270	0.00	29.718 
03:10	35.6	35.6	35.6	60	23.1	2	6	248	0.00	29.718 
03:15	35.6	35.6	35.6	61	23.5	2	6	248	0.00	29.714 
03:20	35.6	35.6	35.6	61	23.5	2	4	248	0.00	29.714 
03:25	35.5	35.5	35.5	61	23.4	1	5	248	0.00	29.714 
03:30	35.3	35.3	35.3	62	23.6	1	3	248	0.00	29.711 
03:35	35.3	35.3	35.3	61	23.2	1	5	248	0.00	29.711 
03:40	35.3	35.3	35.3	62	23.6	1	4	248	0.00	29.711 
03:45	35.2	35.2	35.2	62	23.5	2	6	270	0.00	29.711 
03:50	35.3	35.3	35.3	62	23.6	2	4	248	0.00	29.711 
03:55	35.3	35.3	35.3	62	23.6	1	4	270	0.00	29.711 
04:00	35.2	35.2	35.2	63	23.9	0	2	248	0.00	29.713 
04:05	34.9	34.9	34.9	63	23.6	1	3	248	0.00	29.713 
04:10	34.9	34.9	34.9	64	24.0	1	3	248	0.00	29.713 
04:15	34.9	34.9	34.9	64	24.0	2	6	248	0.00	29.713 
04:20	34.9	34.9	34.9	64	24.0	1	4	248	0.00	29.713 
04:25	34.9	34.9	34.9	64	24.0	2	7	248	0.00	29.713 
04:30	34.7	34.7	34.7	64	23.8	1	4	248	0.00	29.713 
04:35	34.7	34.7	34.7	65	24.2	2	7	248	0.00	29.713 
04:40	34.6	34.6	34.6	65	24.1	1	5	248	0.00	29.713 
04:45	34.4	34.4	34.4	65	23.9	1	9	248	0.00	29.706 
04:50	34.4	34.4	34.4	66	24.2	2	9	248	0.00	29.706 
04:55	34.3	34.3	34.3	66	24.1	1	6	248	0.00	29.706 
05:00	34.1	34.1	34.1	67	24.3	1	3	248	0.00	29.703 
05:05	33.8	33.8	33.8	68	24.4	0	3	248	0.00	29.703 
05:10	33.5	33.5	33.5	69	24.4	1	2	248	0.00	29.703 
05:15	33.4	33.4	33.4	69	24.3	1	5	248	0.00	29.708 
05:20	33.2	33.2	33.2	69	24.2	1	4	248	0.00	29.708 
05:25	33.2	33.2	33.2	70	24.5	1	3	270	0.00	29.708 
05:30	33.1	33.1	33.1	71	24.7	1	3	248	0.00	29.707 
05:35	32.9	32.9	32.9	71	24.5	1	10	248	0.00	29.707 
05:40	32.8	32.8	32.8	72	24.8	1	5	248	0.00	29.707 
05:45	32.8	32.8	32.8	72	24.8	1	6	248	0.00	29.705 
05:50	32.8	32.8	32.8	72	24.8	1	4	248	0.00	29.705 
05:55	32.8	32.8	32.8	72	24.8	1	5	248	0.00	29.705 
06:00	32.9	32.9	32.9	73	25.2	2	6	248	0.00	29.704 
06:05	32.8	32.8	32.8	73	25.1	1	6	248	0.00	29.704 
06:10	32.8	32.8	32.8	73	25.1	1	6	248	0.00	29.704 
06:15	32.9	32.9	32.9	72	24.9	2	6	248	0.00	29.697 
06:20	32.9	32.9	32.9	72	24.9	1	6	270	0.00	29.697 
06:25	33.1	33.1	33.1	72	25.1	2	5	248	0.00	29.697 
06:30	33.1	33.1	33.1	72	25.1	2	5	248	0.00	29.697 
06:35	33.1	33.1	33.1	72	25.1	1	8	248	0.00	29.697 
06:40	32.9	32.9	32.9	72	24.9	2	5	248	0.00	29.697 
06:45	32.8	32.8	32.8	72	24.8	1	11	248	0.00	29.698 
06:50	32.8	32.8	32.8	72	24.8	2	11	248	0.00	29.698 
06:55	32.9	32.9	32.9	72	24.9	2	6	248	0.00	29.698 
07:00	32.8	32.8	32.8	73	25.1	1	4	248	0.00	29.701 
07:05	32.8	32.8	32.8	72	24.8	2	4	248	0.00	29.701 
07:10	32.8	32.8	32.8	72	24.8	2	6	248	0.00	29.701 
07:15	32.7	32.7	32.7	73	25.0	1	4	248	0.00	29.702 
07:20	32.7	32.7	32.7	74	25.3	2	7	248	0.00	29.702 
07:25	32.5	32.5	32.5	74	25.2	1	5	248	0.00	29.702 
07:30	32.4	32.4	32.4	75	25.4	1	6	270	0.00	29.706 
07:35	32.4	32.4	32.4	75	25.4	1	3	270	0.00	29.706 
07:40	32.4	32.4	32.4	75	25.4	2	6	248	0.00	29.706 
07:45	32.2	32.2	32.2	75	25.2	1	7	270	0.00	29.707 
07:50	32.2	32.2	32.2	75	25.2	2	6	248	0.00	29.707 
07:55	32.1	32.1	32.1	76	25.4	1	7	248	0.00	29.707 
08:00	31.9	31.9	31.9	76	25.2	1	5	248	0.00	29.695 
08:05	31.9	31.9	31.9	76	25.2	1	4	270	0.00	29.695 
08:10	31.9	31.9	31.9	77	25.5	1	6	270	0.00	29.695 
08:15	31.9	31.9	31.9	76	25.2	1	5	248	0.00	29.695 
08:20	32.2	32.2	32.2	75	25.2	2	6	270	0.00	29.695 
08:25	32.4	32.4	32.4	75	25.4	2	6	248	0.00	29.695 
08:30	32.5	32.5	32.5	75	25.5	2	6	248	0.00	29.696 
08:35	32.7	32.7	32.7	74	25.3	1	6	270	0.00	29.696 
08:40	32.9	32.9	32.9	73	25.2	2	7	248	0.00	29.696 
08:45	33.1	33.1	33.1	73	25.4	2	6	248	0.00	29.693 
08:50	33.4	33.4	33.4	72	25.4	3	9	248	0.00	29.693 
08:55	33.5	33.5	33.5	71	25.1	2	7	270	0.00	29.693 
09:00	33.8	33.8	33.8	71	25.4	2	5	248	0.00	29.692 
09:05	34.1	30.5	34.1	69	25.0	4	10	270	0.00	29.692 
09:10	34.3	34.3	34.3	68	24.9	3	10	248	0.00	29.692 
09:15	34.6	34.6	34.6	68	25.1	3	10	248	0.00	29.691 
09:20	34.9	31.4	34.9	65	24.3	4	13	270	0.00	29.691 
09:25	35.0	30.6	35.0	65	24.4	5	13	270	0.00	29.691 
09:30	35.3	31.9	35.3	65	24.7	4	12	270	0.00	29.690 
09:35	35.8	35.8	35.8	64	24.8	3	9	270	0.00	29.690 
09:40	36.0	31.8	36.0	62	24.3	5	11	270	0.00	29.690 
09:45	36.3	33.0	36.3	61	24.2	4	9	248	0.00	29.695 
09:50	36.8	32.7	36.8	59	23.8	5	12	270	0.00	29.695 
09:55	36.9	36.9	36.9	61	24.7	3	12	270	0.00	29.695 
10:00	37.2	33.2	37.2	58	23.8	5	15	270	0.00	29.690 
10:05	37.8	34.8	37.8	57	24.0	4	11	248	0.00	29.690 
10:10	38.2	38.2	38.2	56	23.9	3	9	270	0.00	29.690 
10:15	38.8	38.8	38.8	54	23.6	3	11	270	0.00	29.691 
10:20	38.9	35.2	38.9	51	22.3	5	10	270	0.00	29.691 
10:25	39.1	34.1	39.1	48	21.1	7	17	270	0.00	29.691 
10:30	38.9	34.4	38.9	51	22.3	6	12	270	0.00	29.688 
10:35	39.3	34.9	39.3	49	21.8	6	15	270	0.00	29.688 
10:40	39.6	36.9	39.6	49	22.0	4	15	270	0.00	29.688 
10:45	39.8	36.2	39.8	49	22.2	5	13	248	0.00	29.690 
10:50	39.6	35.3	39.6	49	22.0	6	13	270	0.00	29.690 
10:55	39.5	34.0	39.5	50	22.4	8	21	270	0.00	29.690 
11:00	40.1	36.6	40.1	51	23.4	5	11	270	0.00	29.684 
11:05	40.6	37.2	40.6	50	23.4	5	11	270	0.00	29.684 
11:10	40.6	36.5	40.6	50	23.4	6	12	270	0.00	29.684 
11:15	40.8	36.7	40.8	49	23.1	6	15	270	0.00	29.675 
11:20	40.5	35.7	40.5	50	23.3	7	13	270	0.00	29.675 
11:25	40.5	35.2	40.5	50	23.3	8	22	270	0.00	29.675 
11:30	40.8	36.7	40.8	50	23.6	6	15	270	0.00	29.669 
11:35	40.9	36.2	40.9	51	24.2	7	17	270	0.00	29.669 
11:40	41.1	36.5	41.1	49	23.4	7	16	270	0.00	29.669 
11:45	41.3	37.3	41.3	49	23.6	6	13	270	0.00	29.675 
11:50	41.5	37.5	41.5	48	23.3	6	11	248	0.00	29.675 
11:55	41.8	37.9	41.8	49	24.1	6	14	270	0.00	29.675 
12:00	42.5	39.4	42.5	47	23.7	5	11	270	0.00	29.670 
12:05	42.6	38.9	42.6	47	23.8	6	15	270	0.00	29.670 
12:10	43.2	39.6	43.2	46	23.8	6	13	270	0.00	29.670 
12:15	43.1	39.5	43.1	46	23.7	6	15	248	0.00	29.665 
12:20	43.3	39.7	43.3	44	22.9	6	13	270	0.00	29.665 
12:25	43.9	41.8	43.9	46	24.5	4	11	270	0.00	29.665 
12:30	43.9	40.4	43.9	45	23.9	6	18	270	0.00	29.661 
12:35	44.2	41.4	44.2	48	25.8	5	11	270	0.00	29.661 
12:40	44.2	39.7	44.2	42	22.6	8	17	270	0.00	29.661 
12:45	44.3	40.3	44.3	44	23.8	7	15	270	0.00	29.657 
12:50	44.3	40.3	44.3	43	23.2	7	15	270	0.00	29.657 
12:55	44.8	42.1	44.8	43	23.7	5	14	270	0.00	29.657 
13:00	44.9	41.0	44.9	44	24.3	7	18	270	0.00	29.657 
13:05	44.9	40.6	44.9	41	22.6	8	19	270	0.00	29.657 
13:10	45.1	41.3	45.1	43	24.0	7	13	270	0.00	29.657 
13:15	45.8	44.0	45.8	45	25.7	4	10	270	0.00	29.659 
13:20	46.0	42.4	46.0	42	24.2	7	14	270	0.00	29.659 
13:25	46.4	44.0	46.4	41	24.0	5	12	270	0.00	29.659 
13:30	46.7	43.7	46.7	42	24.8	6	10	270	0.00	29.654 
13:35	47.1	44.8	47.1	41	24.6	5	11	270	0.00	29.654 
13:40	47.3	43.9	47.3	40	24.2	7	18	270	0.00	29.654 
13:45	47.7	46.2	47.7	40	24.6	4	12	270	0.00	29.647 
13:50	47.7	44.9	47.7	38	23.4	6	13	270	0.00	29.647 
13:55	47.6	44.3	47.6	40	24.5	7	15	270	0.00	29.647 
14:00	47.9	45.2	47.9	39	24.1	6	16	270	0.00	29.647 
14:05	48.0	45.9	48.0	38	23.6	5	15	270	0.00	29.647 
14:10	48.3	45.6	48.3	37	23.3	6	15	270	0.00	29.647 
14:15	48.2	46.1	48.2	40	25.0	5	12	270	0.00	29.641 
14:20	48.2	45.5	48.2	39	24.4	6	15	270	0.00	29.641 
14:25	48.5	46.5	48.5	37	23.4	5	11	270	0.00	29.641 
14:30	48.6	46.0	48.6	36	22.9	6	15	270	0.00	29.637 
14:35	48.3	45.1	48.3	38	23.9	7	13	270	0.00	29.637 
14:40	48.5	45.4	48.5	36	22.8	7	15	270	0.00	29.637 
14:45	48.6	46.6	48.6	37	23.5	5	15	270	0.00	29.642 
14:50	49.1	47.2	49.1	38	24.6	5	14	248	0.00	29.642 
14:55	49.1	46.1	49.1	37	24.0	7	16	270	0.00	29.642 
15:00	49.2	47.3	49.2	35	22.7	5	14	270	0.00	29.635 
15:05	49.2	46.7	49.2	34	22.0	6	14	270	0.00	29.635 
15:10	49.5	47.6	49.5	35	23.0	5	12	270	0.00	29.635 
15:15	49.6	47.7	49.6	35	23.1	5	10	270	0.00	29.640 
15:20	49.6	47.2	49.6	33	21.7	6	13	270	0.00	29.640 
15:25	49.8	48.6	49.8	34	22.6	4	9	270	0.00	29.640 
15:30	49.6	47.2	49.6	34	22.4	6	14	270	0.00	29.642 
15:35	49.9	47.5	49.9	32	21.2	6	15	270	0.00	29.642 
15:40	49.8	46.5	49.8	33	21.9	8	17	270	0.00	29.642 
15:45	50.4	50.4	50.4	35	23.8	5	11	270	0.00	29.647 
15:50	50.8	50.8	50.8	34	23.5	4	13	270	0.00	29.647 
15:55	50.5	50.5	50.5	33	22.5	7	15	270	0.00	29.647 
16:00	50.5	50.5	50.5	34	23.2	6	16	270	0.00	29.646 
16:05	50.4	50.4	50.4	33	22.4	6	13	270	0.00	29.646 
16:10	50.2	50.2	50.2	33	22.2	6	11	270	0.00	29.646 
16:15	50.7	50.7	50.7	34	23.4	5	14	270	0.00	29.649 
16:20	50.7	50.7	50.7	33	22.7	5	15	270	0.00	29.649 
16:25	50.5	50.5	50.5	32	21.8	5	10	270	0.00	29.649 
16:30	50.2	50.2	50.2	33	22.2	6	16	270	0.00	29.649 
16:35	50.4	50.4	50.4	31	20.9	5	13	270	0.00	29.649 
16:40	50.2	50.2	50.2	33	22.2	5	14	270	0.00	29.649 
16:45	50.2	50.2	50.2	33	22.2	6	16	270	0.00	29.651 
16:50	50.1	50.1	50.1	34	22.8	5	15	270	0.00	29.651 
16:55	50.2	50.2	50.2	34	22.9	5	12	270	0.00	29.651 
17:00	50.2	50.2	50.2	35	23.6	4	12	270	0.00	29.651 
17:05	50.4	50.4	50.4	33	22.4	4	10	270	0.00	29.651 
17:10	50.1	50.1	50.1	33	22.1	7	18	270	0.00	29.651 
17:15	49.9	48.1	49.9	34	22.7	5	13	270	0.00	29.653 
17:20	49.9	48.1	49.9	34	22.7	5	14	270	0.00	29.653 
17:25	50.1	50.1	50.1	35	23.5	3	11	270	0.00	29.653 
17:30	49.9	47.5	49.9	32	21.2	6	19	270	0.00	29.654 
17:35	49.9	48.8	49.9	34	22.7	4	11	270	0.00	29.654 
17:40	49.8	48.0	49.8	34	22.6	5	15	270	0.00	29.654 
17:45	49.8	48.6	49.8	34	22.6	4	13	248	0.00	29.659 
17:50	49.8	48.0	49.8	34	22.6	5	13	270	0.00	29.659 
17:55	49.6	47.2	49.6	33	21.7	6	15	248	0.00	29.659 
18:00	49.5	47.6	49.5	34	22.3	5	13	270	0.00	29.662 
18:05	49.4	47.5	49.4	33	21.5	5	12	270	0.00	29.662 
18:10	49.2	47.3	49.2	34	22.0	5	12	270	0.00	29.662 
18:15	49.2	47.9	49.2	35	22.7	4	11	270	0.00	29.668 
18:20	49.1	47.2	49.1	35	22.6	5	11	270	0.00	29.668 
18:25	48.9	46.9	48.9	35	22.5	5	12	270	0.00	29.668 
18:30	48.8	46.8	48.8	35	22.4	5	12	270	0.00	29.671 
18:35	48.6	48.6	48.6	36	22.9	3	12	270	0.00	29.671 
18:40	48.5	48.5	48.5	35	22.1	3	7	270	0.00	29.671 
18:45	48.3	48.3	48.3	36	22.6	3	7	270	0.00	29.670 
18:50	48.2	48.2	48.2	37	23.2	3	7	270	0.00	29.670 
18:55	48.0	48.0	48.0	37	23.0	3	9	270	0.00	29.670 
19:00	47.9	46.4	47.9	38	23.5	4	8	270	0.00	29.672 
19:05	47.7	47.7	47.7	37	22.7	3	7	248	0.00	29.672 
19:10	47.6	46.1	47.6	37	22.6	4	10	270	0.00	29.672 
19:15	47.6	47.6	47.6	37	22.6	3	10	270	0.00	29.680 
19:20	47.4	47.4	47.4	38	23.1	3	7	248	0.00	29.680 
19:25	47.3	47.3	47.3	39	23.6	2	5	248	0.00	29.680 
19:30	47.0	47.0	47.0	39	23.3	3	7	248	0.00	29.685 
19:35	46.8	46.8	46.8	39	23.2	2	5	248	0.00	29.685 
19:40	47.0	47.0	47.0	39	23.3	3	7	270	0.00	29.685 
19:45	46.8	46.8	46.8	39	23.2	2	9	248	0.00	29.693 
19:50	46.8	46.8	46.8	40	23.8	3	6	270	0.00	29.693 
19:55	46.8	46.8	46.8	40	23.8	3	9	270	0.00	29.693 
20:00	46.7	46.7	46.7	41	24.3	2	6	248	0.00	29.702 
20:05	46.5	46.5	46.5	41	24.1	2	10	248	0.00	29.702 
20:10	46.4	46.4	46.4	41	24.0	2	6	270	0.00	29.702 
20:15	46.4	46.4	46.4	41	24.0	3	9	248	0.00	29.702 
20:20	46.2	46.2	46.2	41	23.8	2	4	248	0.00	29.702 
20:25	46.1	46.1	46.1	41	23.7	2	4	248	0.00	29.702 
20:30	46.1	46.1	46.1	41	23.7	3	5	248	0.00	29.713 
20:35	46.1	46.1	46.1	41	23.7	2	8	248	0.00	29.713 
20:40	46.0	46.0	46.0	42	24.2	2	6	248	0.00	29.713 
20:45	46.0	46.0	46.0	41	23.6	2	10	270	0.00	29.719 
20:50	45.8	45.8	45.8	43	24.6	2	10	248	0.00	29.719 
20:55	45.7	45.7	45.7	43	24.5	2	6	248	0.00	29.719 
21:00	45.5	45.5	45.5	43	24.3	1	4	248	0.00	29.720 
21:05	45.4	45.4	45.4	43	24.2	2	4	248	0.00	29.720 
21:10	45.2	45.2	45.2	44	24.6	1	4	248	0.00	29.720 
21:15	44.9	44.9	44.9	45	24.9	1	5	270	0.00	29.720 
21:20	44.9	44.9	44.9	44	24.3	2	4	248	0.00	29.720 
21:25	44.9	44.9	44.9	45	24.9	1	5	248	0.00	29.720 
21:30	44.8	44.8	44.8	45	24.8	2	4	248	0.00	29.718 
21:35	44.8	44.8	44.8	45	24.8	2	6	248	0.00	29.718 
21:40	44.8	44.8	44.8	45	24.8	2	5	248	0.00	29.718 
21:45	44.8	44.8	44.8	45	24.8	2	6	248	0.00	29.718 
21:50	44.8	44.8	44.8	45	24.8	2	6	248	0.00	29.718 
21:55	44.6	44.6	44.6	45	24.6	3	6	248	0.00	29.718 
22:00	44.6	44.6	44.6	45	24.6	3	7	248	0.00	29.716 
22:05	44.6	44.6	44.6	45	24.6	2	6	270	0.00	29.716 
22:10	44.3	44.3	44.3	45	24.3	2	6	248	0.00	29.716 
22:15	44.3	44.3	44.3	46	24.8	2	5	248	0.00	29.715 
22:20	44.2	44.2	44.2	46	24.7	2	6	248	0.00	29.715 
22:25	44.2	44.2	44.2	46	24.7	3	5	270	0.00	29.715 
22:30	44.2	44.2	44.2	46	24.7	2	5	248	0.00	29.717 
22:35	44.1	44.1	44.1	46	24.7	2	6	248	0.00	29.717 
22:40	44.1	44.1	44.1	46	24.7	2	4	248	0.00	29.717 
22:45	43.9	43.9	43.9	46	24.5	2	6	270	0.00	29.715 
22:50	43.9	43.9	43.9	46	24.5	2	6	248	0.00	29.715 
22:55	43.9	43.9	43.9	46	24.5	2	5	248	0.00	29.715 
23:00	44.1	44.1	44.1	46	24.7	3	6	248	0.00	29.715 
23:05	43.9	43.9	43.9	46	24.5	3	7	248	0.00	29.715 
23:10	43.8	43.8	43.8	47	24.9	2	4	248	0.00	29.715 
23:15	43.6	43.6	43.6	47	24.7	2	5	248	0.00	29.711 
23:20	43.6	43.6	43.6	47	24.7	2	6	270	0.00	29.711 
23:25	43.6	43.6	43.6	46	24.2	2	6	248	0.00	29.711 
23:30	43.6	43.6	43.6	46	24.2	2	5	248	0.00	29.710 
23:35	43.6	43.6	43.6	46	24.2	2	5	270	0.00	29.710 
23:40	43.6	43.6	43.6	46	24.2	2	5	248	0.00	29.710 
23:45	43.5	43.5	43.5	46	24.1	2	6	248	0.00	29.709 
23:50	43.5	43.5	43.5	46	24.1	2	5	248	0.00	29.709 
23:55	43.5	43.5	43.5	47	24.6	2	4	248	0.00	29.709 

CoCoRaHS
IN-AL-39
A2 Web Hosting
Creative Commons License
GoDaddy
Look for:

loaded 2017-12-12 14:50:28 • last modified 2010-11-18 10:43:29
Privacy PolicyDisclaimer
• wx.awcolley.com is powered by PmWiki v.2002016 •
• all content (unless otherwise noted) © 2017 A W Colley